Time;durP1;ratioP1;P1;durP2;ratioP2;P2;SDS_P1;SDS_P2;PMS_P1;PMS_P2;Temp;Humidity;BMP_temperature;BMP_pressure;BME280_temperature;BME280_humidity;BME280_pressure;Samples;Min_cycle;Max_cycle;Signal;HPM_P1;HPM_P2
2022/05/31 00:01:53;;;;;;;;;29.00;25.50;27.50;99.90;;;;;;5020928;28;8757;-66
2022/05/31 00:04:20;;;;;;;;;27.50;22.00;27.60;99.90;;;;;;5021731;28;8771;-66
2022/05/31 00:06:46;;;;;;;;;21.75;20.25;27.60;99.90;;;;;;5021277;28;8776;-67
2022/05/31 00:09:13;;;;;;;;;25.25;23.75;27.50;99.90;;;;;;5038720;28;8799;-67
2022/05/31 00:11:43;;;;;;;;;28.50;24.50;27.50;99.90;;;;;;5038539;28;9444;-66
2022/05/31 00:14:11;;;;;;;;;26.25;24.25;27.60;99.90;;;;;;5038444;28;8843;-66
2022/05/31 00:16:37;;;;;;;;;25.00;22.75;27.60;99.90;;;;;;5038371;28;9171;-66
2022/05/31 00:19:04;;;;;;;;;28.25;25.75;27.50;99.90;;;;;;5039372;28;8741;-66
2022/05/31 00:22:12;;;;;;;;;25.80;22.20;27.50;99.90;;;;;;5038458;28;8777;-66
2022/05/31 00:24:40;;;;;;;;;29.50;27.00;27.40;99.90;;;;;;5028132;28;8819;-66
2022/05/31 00:27:10;;;;;;;;;26.75;23.25;27.60;99.90;;;;;;5037286;28;8817;-67
2022/05/31 00:29:37;;;;;;;;;37.00;29.75;27.70;99.90;;;;;;5020741;28;8784;-67
2022/05/31 00:32:07;;;;;;;;;31.75;28.50;27.60;99.90;;;;;;5020472;28;8772;-67
2022/05/31 00:34:35;;;;;;;;;29.40;23.00;27.50;99.90;;;;;;5037516;28;9128;-66
2022/05/31 00:37:02;;;;;;;;;26.50;24.00;27.50;99.90;;;;;;5038630;28;8768;-67
2022/05/31 00:39:29;;;;;;;;;32.75;25.75;27.40;99.90;;;;;;5020213;28;9024;-67
2022/05/31 00:42:04;;;;;;;;;24.20;23.40;27.40;99.90;;;;;;5037764;28;8829;-67
2022/05/31 00:44:31;;;;;;;;;29.20;26.20;27.40;99.90;;;;;;5003732;28;9405;-66
2022/05/31 00:47:07;;;;;;;;;33.80;23.40;27.50;99.90;;;;;;5038838;28;8745;-67
2022/05/31 00:49:49;;;;;;;;;23.25;21.75;27.60;99.90;;;;;;5036711;28;9031;-67
2022/05/31 00:52:25;;;;;;;;;30.50;25.75;27.80;99.90;;;;;;5037982;28;8777;-67
2022/05/31 00:55:01;;;;;;;;;26.00;25.25;27.70;99.90;;;;;;5021074;28;8753;-67
2022/05/31 00:57:28;;;;;;;;;31.25;25.00;27.70;99.90;;;;;;5037596;28;8761;-67
2022/05/31 00:59:58;;;;;;;;;31.00;24.75;27.70;99.90;;;;;;5019919;28;8741;-67
2022/05/31 01:02:25;;;;;;;;;27.80;24.20;27.70;99.90;;;;;;5020162;28;8765;-66
2022/05/31 01:04:58;;;;;;;;;25.00;23.20;27.80;99.90;;;;;;5003167;28;8753;-67
2022/05/31 01:07:24;;;;;;;;;30.80;23.20;27.90;99.90;;;;;;5020752;28;8827;-67
2022/05/31 01:09:51;;;;;;;;;23.40;19.80;27.90;99.90;;;;;;5020055;28;9725;-67
2022/05/31 01:12:18;;;;;;;;;23.40;20.60;27.90;99.90;;;;;;4989458;28;9613;-65
2022/05/31 01:14:45;;;;;;;;;25.60;21.20;27.90;99.90;;;;;;4984079;28;8798;-67
2022/05/31 01:17:17;;;;;;;;;14.20;11.00;28.00;99.90;;;;;;5017806;28;8771;-67
2022/05/31 01:19:57;;;;;;;;;19.60;18.40;28.00;99.90;;;;;;5016577;28;8759;-67
2022/05/31 01:22:40;;;;;;;;;23.25;20.00;28.10;99.90;;;;;;5017835;28;9431;-66
2022/05/31 01:25:46;;;;;;;;;19.25;16.75;28.20;99.90;;;;;;5016996;28;8798;-67
2022/05/31 01:28:22;;;;;;;;;22.25;22.25;28.20;99.90;;;;;;4980339;28;8831;-67
2022/05/31 01:31:22;;;;;;;;;25.25;21.50;28.20;99.90;;;;;;5016425;28;8779;-67
2022/05/31 01:33:51;;;;;;;;;20.75;18.50;28.20;99.90;;;;;;5015187;28;8944;-67
2022/05/31 01:36:23;;;;;;;;;19.50;18.00;28.20;99.90;;;;;;5012057;28;8811;-66
2022/05/31 01:38:56;;;;;;;;;24.50;21.75;28.20;99.90;;;;;;4996699;28;8856;-67
2022/05/31 01:41:37;;;;;;;;;26.00;21.25;28.30;99.90;;;;;;5012269;28;8835;-67
2022/05/31 01:44:05;;;;;;;;;23.50;23.25;28.40;99.90;;;;;;4995954;28;8868;-67
2022/05/31 01:46:34;;;;;;;;;29.50;26.50;28.40;99.90;;;;;;5011865;28;8813;-67
2022/05/31 01:49:06;;;;;;;;;28.25;25.75;28.40;99.90;;;;;;4996452;28;8852;-67
2022/05/31 01:51:34;;;;;;;;;24.25;24.00;28.40;99.90;;;;;;4997142;28;8804;-67
2022/05/31 01:54:01;;;;;;;;;30.00;23.00;28.60;99.90;;;;;;4996925;28;8781;-67
2022/05/31 01:56:28;;;;;;;;;25.75;21.50;28.60;99.90;;;;;;4996879;28;8773;-66
2022/05/31 01:58:54;;;;;;;;;23.00;21.75;28.60;99.90;;;;;;4978349;28;8768;-67
2022/05/31 02:01:21;;;;;;;;;24.25;22.50;28.70;99.90;;;;;;4976135;28;8756;-66
2022/05/31 02:03:48;;;;;;;;;25.50;21.25;28.70;99.90;;;;;;4960242;28;8768;-67
2022/05/31 02:06:38;;;;;;;;;25.00;22.25;28.70;99.90;;;;;;4977938;28;8792;-67
2022/05/31 02:09:07;;;;;;;;;18.25;16.25;28.60;99.90;;;;;;4958555;28;8848;-67
2022/05/31 02:11:34;;;;;;;;;20.00;18.50;28.70;99.90;;;;;;4976682;28;8854;-67
2022/05/31 02:14:02;;;;;;;;;26.75;21.25;28.80;99.90;;;;;;4994381;28;8884;-67
2022/05/31 02:16:29;;;;;;;;;22.75;17.50;28.70;99.90;;;;;;4995003;28;8772;-66
2022/05/31 02:21:41;;;;;;;;;22.00;19.00;28.90;99.90;;;;;;4996462;28;8809;-67
2022/05/31 02:24:09;;;;;;;;;22.25;21.00;29.10;99.90;;;;;;5010595;28;9461;-66
2022/05/31 02:26:36;;;;;;;;;21.25;18.25;29.10;99.90;;;;;;4996565;28;8843;-67
2022/05/31 02:29:03;;;;;;;;;17.00;16.50;29.10;99.90;;;;;;5011750;28;8761;-67
2022/05/31 02:31:30;;;;;;;;;15.00;15.00;29.30;99.90;;;;;;4995657;28;8805;-66
2022/05/31 02:33:57;;;;;;;;;20.80;19.00;29.30;99.90;;;;;;4995374;28;8788;-67
2022/05/31 02:36:24;;;;;;;;;20.50;18.25;29.30;99.90;;;;;;5033725;28;9460;-66
2022/05/31 02:38:51;;;;;;;;;20.75;17.25;29.20;99.90;;;;;;5036349;28;9005;-66
2022/05/31 02:41:17;;;;;;;;;19.50;15.00;29.20;99.90;;;;;;5036223;28;8846;-66
2022/05/31 02:43:44;;;;;;;;;26.25;19.75;29.20;99.90;;;;;;5034161;28;9296;-67
2022/05/31 02:46:11;;;;;;;;;20.50;18.50;29.20;99.90;;;;;;5002599;28;8757;-66
2022/05/31 02:48:37;;;;;;;;;22.50;19.50;29.20;99.90;;;;;;5005718;28;8776;-66
2022/05/31 02:51:04;;;;;;;;;21.00;18.50;29.30;99.90;;;;;;5000716;28;8773;-66
2022/05/31 02:53:31;;;;;;;;;27.50;21.50;29.30;99.90;;;;;;5035215;28;8761;-66
2022/05/31 02:55:58;;;;;;;;;15.00;12.25;29.30;99.90;;;;;;5034973;28;9965;-66
2022/05/31 02:58:26;;;;;;;;;18.25;18.00;29.40;99.90;;;;;;5035425;28;8752;-66
2022/05/31 03:00:53;;;;;;;;;22.00;18.50;29.40;99.90;;;;;;5017990;28;8749;-66
2022/05/31 03:03:20;;;;;;;;;23.75;19.50;29.40;99.90;;;;;;5035065;28;8771;-66
2022/05/31 03:05:47;;;;;;;;;24.25;18.75;29.40;99.90;;;;;;5035456;28;8850;-67
2022/05/31 03:08:13;;;;;;;;;17.00;16.00;29.20;99.90;;;;;;5018410;28;8789;-67
2022/05/31 03:10:44;;;;;;;;;22.00;19.50;29.30;99.90;;;;;;5017491;28;8812;-67
2022/05/31 03:13:14;;;;;;;;;25.75;19.25;29.30;99.90;;;;;;5018827;28;8733;-67
2022/05/31 03:15:41;;;;;;;;;20.00;16.80;29.20;99.90;;;;;;5034361;28;8767;-67
2022/05/31 03:18:14;;;;;;;;;32.00;19.60;29.20;99.90;;;;;;5035515;28;8753;-66
2022/05/31 03:20:50;;;;;;;;;22.20;19.20;29.30;99.90;;;;;;5035108;28;8830;-66
2022/05/31 03:23:24;;;;;;;;;21.20;19.00;29.30;99.90;;;;;;5033743;28;9449;-65
2022/05/31 03:25:51;;;;;;;;;16.00;13.25;29.30;99.90;;;;;;5035402;28;8780;-67
2022/05/31 03:28:18;;;;;;;;;21.00;19.50;29.40;99.90;;;;;;5015639;28;8751;-65
2022/05/31 03:30:44;;;;;;;;;23.00;15.25;29.40;99.90;;;;;;5018970;28;8740;-67
2022/05/31 03:33:12;;;;;;;;;26.25;22.75;29.50;99.90;;;;;;5018792;28;9912;-67
2022/05/31 03:35:39;;;;;;;;;16.75;13.25;29.50;99.90;;;;;;4978919;28;8882;-67
2022/05/31 03:38:06;;;;;;;;;21.25;17.50;29.60;99.90;;;;;;4994959;28;8776;-65
2022/05/31 03:43:18;;;;;;;;;17.20;13.60;30.90;99.90;;;;;;4993407;28;8750;-65
2022/05/31 03:45:44;;;;;;;;;18.50;15.00;31.20;99.90;;;;;;4999874;28;8785;-65
2022/05/31 03:48:12;;;;;;;;;18.80;15.80;31.30;99.90;;;;;;4999489;28;8745;-67
2022/05/31 03:50:39;;;;;;;;;17.20;16.20;31.10;99.90;;;;;;4981808;28;9139;-65
2022/05/31 03:53:09;;;;;;;;;20.25;13.75;30.90;99.90;;;;;;5000118;28;9237;-67
2022/05/31 03:55:40;;;;;;;;;16.60;14.60;31.40;99.90;;;;;;5014584;28;8758;-65
2022/05/31 03:58:07;;;;;;;;;20.60;15.80;31.20;99.90;;;;;;4999908;28;8738;-64
2022/05/31 04:00:34;;;;;;;;;14.40;12.20;30.70;99.90;;;;;;4999529;28;8753;-65
2022/05/31 04:03:01;;;;;;;;;20.25;16.75;31.40;99.90;;;;;;4999954;28;8901;-66
2022/05/31 04:05:27;;;;;;;;;17.50;13.00;32.50;99.90;;;;;;4999603;28;8865;-66
2022/05/31 04:07:55;;;;;;;;;18.00;14.75;32.60;99.90;;;;;;5000063;28;8789;-70
2022/05/31 04:10:22;;;;;;;;;15.20;12.60;32.80;99.90;;;;;;5000156;28;8761;-65
2022/05/31 04:12:48;;;;;;;;;14.60;13.60;32.80;99.90;;;;;;4999449;28;8860;-66
2022/05/31 04:15:15;;;;;;;;;13.25;13.25;32.30;99.90;;;;;;4999752;28;8745;-66
2022/05/31 04:17:42;;;;;;;;;15.75;13.75;32.80;99.90;;;;;;4999169;28;8773;-66
2022/05/31 04:20:09;;;;;;;;;17.50;14.75;32.70;99.90;;;;;;4999564;28;8753;-65
2022/05/31 04:22:36;;;;;;;;;22.50;17.25;32.60;99.90;;;;;;4998872;28;8789;-65
2022/05/31 04:25:03;;;;;;;;;18.25;15.25;32.80;99.90;;;;;;4999522;28;8738;-64
2022/05/31 04:27:30;;;;;;;;;14.25;11.25;32.50;99.90;;;;;;4998478;28;8757;-65
2022/05/31 04:29:57;;;;;;;;;19.00;17.25;31.80;99.90;;;;;;4997576;28;8777;-64
2022/05/31 04:32:24;;;;;;;;;21.50;18.75;31.60;99.90;;;;;;5013335;28;8792;-64
2022/05/31 04:34:52;;;;;;;;;18.75;15.75;31.40;99.90;;;;;;5010481;28;8737;-65
2022/05/31 04:37:18;;;;;;;;;20.25;16.50;31.40;99.90;;;;;;5038938;28;8753;-64
2022/05/31 04:39:45;;;;;;;;;21.25;17.00;31.50;99.90;;;;;;5037279;28;8851;-64
2022/05/31 04:42:12;;;;;;;;;16.50;16.50;31.40;99.90;;;;;;5038097;28;8804;-64
2022/05/31 04:44:39;;;;;;;;;17.75;16.00;31.40;99.90;;;;;;5019927;28;8769;-64
2022/05/31 04:47:08;;;;;;;;;19.25;15.75;31.40;99.90;;;;;;5020363;28;8777;-65
2022/05/31 04:49:35;;;;;;;;;17.00;14.75;31.30;99.90;;;;;;5037604;28;9140;-64
2022/05/31 04:52:02;;;;;;;;;20.75;14.75;31.40;99.90;;;;;;5020416;28;8796;-64
2022/05/31 04:54:30;;;;;;;;;10.25;10.25;31.70;99.90;;;;;;5020586;28;8752;-63
2022/05/31 04:57:01;;;;;;;;;17.00;13.25;32.70;99.90;;;;;;5038123;28;8785;-64
2022/05/31 04:59:28;;;;;;;;;16.00;15.50;32.90;99.90;;;;;;5019814;28;8784;-64
2022/05/31 05:01:54;;;;;;;;;20.25;17.75;33.00;99.90;;;;;;5003419;28;8943;-64
2022/05/31 05:04:21;;;;;;;;;17.60;13.00;32.20;99.90;;;;;;5037848;28;8768;-64
2022/05/31 05:06:48;;;;;;;;;18.75;16.25;33.30;99.90;;;;;;5020338;28;8765;-64
2022/05/31 05:09:15;;;;;;;;;22.25;16.00;34.00;99.20;;;;;;5037688;28;8761;-65
2022/05/31 05:11:41;;;;;;;;;19.25;17.25;34.00;98.80;;;;;;5036010;28;8761;-64
2022/05/31 05:14:08;;;;;;;;;19.75;15.00;33.20;98.90;;;;;;5036994;28;8757;-63
2022/05/31 05:16:35;;;;;;;;;13.75;12.75;32.70;99.90;;;;;;5037017;28;8753;-64
2022/05/31 05:19:02;;;;;;;;;17.00;13.00;33.50;99.90;;;;;;5019439;28;8733;-64
2022/05/31 05:21:28;;;;;;;;;14.60;12.60;33.40;99.80;;;;;;5019362;28;8753;-64
2022/05/31 05:23:56;;;;;;;;;16.50;14.00;33.90;99.90;;;;;;5036162;28;9402;-65
2022/05/31 05:26:22;;;;;;;;;15.75;15.75;34.10;98.60;;;;;;5036397;28;8765;-64
2022/05/31 05:31:35;;;;;;;;;19.40;15.60;33.30;98.90;;;;;;5025824;28;8749;-65
2022/05/31 05:34:02;;;;;;;;;13.20;11.00;34.00;98.60;;;;;;5037503;28;8749;-64
2022/05/31 05:36:29;;;;;;;;;15.00;13.80;33.00;99.50;;;;;;5035916;28;8753;-65
2022/05/31 05:38:56;;;;;;;;;12.50;12.00;33.80;98.60;;;;;;5018876;28;8776;-64
2022/05/31 05:41:24;;;;;;;;;18.00;15.00;33.90;98.50;;;;;;5002199;28;8781;-65
2022/05/31 05:43:51;;;;;;;;;19.50;16.50;32.90;99.70;;;;;;5036629;28;9378;-66
2022/05/31 05:46:19;;;;;;;;;20.00;18.25;33.30;99.60;;;;;;5037207;28;8761;-63
2022/05/31 05:48:46;;;;;;;;;16.75;14.25;33.50;99.30;;;;;;5036917;28;8729;-64
2022/05/31 05:51:17;;;;;;;;;9.75;9.00;34.20;97.90;;;;;;5019271;28;8757;-70
2022/05/31 05:53:44;;;;;;;;;14.50;12.50;33.30;98.20;;;;;;5035979;28;8761;-65
2022/05/31 05:56:11;;;;;;;;;15.00;14.00;33.00;99.00;;;;;;5017696;28;8768;-69
2022/05/31 05:58:38;;;;;;;;;21.00;14.75;32.50;99.60;;;;;;5035437;28;9535;-68
2022/05/31 06:01:06;;;;;;;;;18.50;13.00;33.20;99.90;;;;;;5036200;28;8741;-68
2022/05/31 06:03:57;;;;;;;;;15.50;13.00;33.80;98.10;;;;;;5019283;28;8753;-69
2022/05/31 06:06:24;;;;;;;;;15.75;12.25;33.70;99.60;;;;;;5035842;28;8757;-68
2022/05/31 06:09:01;;;;;;;;;17.75;14.50;33.70;98.50;;;;;;5018326;28;8884;-68
2022/05/31 06:11:33;;;;;;;;;18.25;17.00;33.90;98.20;;;;;;5019815;28;8741;-67
2022/05/31 06:14:11;;;;;;;;;21.60;17.00;33.30;98.00;;;;;;5017711;28;8807;-67
2022/05/31 06:16:49;;;;;;;;;23.00;19.00;32.90;98.70;;;;;;5017834;28;8749;-66
2022/05/31 06:19:39;;;;;;;;;19.00;15.20;32.70;99.20;;;;;;5036574;28;8773;-66
2022/05/31 06:22:06;;;;;;;;;19.25;16.00;32.70;99.40;;;;;;5004875;28;8785;-66
2022/05/31 06:24:34;;;;;;;;;18.75;16.00;32.60;99.20;;;;;;5018628;28;8761;-67
2022/05/31 06:27:01;;;;;;;;;16.50;14.25;32.60;99.90;;;;;;5036298;28;8789;-67
2022/05/31 06:29:30;;;;;;;;;17.00;16.00;32.60;99.90;;;;;;5018650;28;8846;-67
2022/05/31 06:31:57;;;;;;;;;17.00;15.00;32.60;99.60;;;;;;5036096;28;8846;-67
2022/05/31 06:34:24;;;;;;;;;15.00;10.75;32.40;99.70;;;;;;5036066;28;8757;-66
2022/05/31 06:37:02;;;;;;;;;12.50;12.50;32.30;99.90;;;;;;4996664;28;8766;-66
2022/05/31 06:39:29;;;;;;;;;19.50;14.75;32.10;99.60;;;;;;4996730;28;8777;-67
2022/05/31 06:41:56;;;;;;;;;17.75;16.00;32.20;99.90;;;;;;4995332;28;9537;-67
2022/05/31 06:44:22;;;;;;;;;20.00;14.25;32.20;99.90;;;;;;4995278;28;9011;-67
2022/05/31 06:46:49;;;;;;;;;18.75;14.75;32.40;99.90;;;;;;4995033;28;8782;-67
2022/05/31 06:49:16;;;;;;;;;18.00;14.25;32.50;99.50;;;;;;4997345;28;8812;-67
2022/05/31 06:57:20;;;;;;;;;20.00;15.60;32.60;97.80;;;;;;4966050;28;8785;-66
2022/05/31 06:59:47;;;;;;;;;16.20;13.80;32.50;97.80;;;;;;4994121;28;8769;-67
2022/05/31 07:02:14;;;;;;;;;19.20;13.20;32.40;98.90;;;;;;4996339;28;8754;-67
2022/05/31 07:04:41;;;;;;;;;20.40;15.60;32.40;99.30;;;;;;5000106;28;8765;-67
2022/05/31 07:07:07;;;;;;;;;15.20;14.00;32.40;99.60;;;;;;5001258;28;8734;-67
2022/05/31 07:09:34;;;;;;;;;18.80;16.00;32.40;99.30;;;;;;5015550;28;8750;-67
2022/05/31 07:12:01;;;;;;;;;17.80;14.60;32.40;99.20;;;;;;5000556;28;8769;-67
2022/05/31 07:14:27;;;;;;;;;16.80;15.60;32.20;99.90;;;;;;5000713;28;8795;-67
2022/05/31 07:16:54;;;;;;;;;17.25;16.50;32.20;99.80;;;;;;5000704;28;8832;-67
2022/05/31 07:19:21;;;;;;;;;18.25;16.50;32.10;99.90;;;;;;4983311;28;8761;-67
2022/05/31 07:21:48;;;;;;;;;17.50;11.50;32.10;99.80;;;;;;5000463;28;8911;-67
2022/05/31 07:24:14;;;;;;;;;22.00;19.75;32.20;99.30;;;;;;5000349;28;8758;-67
2022/05/31 07:26:41;;;;;;;;;17.00;14.75;32.10;99.00;;;;;;5000109;28;8773;-67
2022/05/31 07:29:09;;;;;;;;;19.00;16.50;32.00;99.90;;;;;;5000225;28;8784;-67
2022/05/31 07:31:36;;;;;;;;;15.00;13.25;32.00;99.90;;;;;;4999858;28;8765;-68
2022/05/31 07:34:04;;;;;;;;;19.75;16.25;32.10;99.90;;;;;;5000851;28;8742;-67
2022/05/31 07:36:31;;;;;;;;;20.00;16.75;32.10;99.90;;;;;;5015463;28;8743;-67
2022/05/31 07:38:57;;;;;;;;;23.75;17.00;32.10;99.90;;;;;;5019919;28;8739;-67
2022/05/31 07:41:24;;;;;;;;;20.75;17.25;32.10;99.90;;;;;;5018309;28;8821;-67
2022/05/31 07:43:51;;;;;;;;;26.00;17.50;32.00;99.90;;;;;;5019148;28;8857;-67
2022/05/31 07:46:19;;;;;;;;;23.75;19.50;32.10;99.90;;;;;;5018361;28;8751;-67
2022/05/31 07:48:45;;;;;;;;;29.00;21.00;32.10;99.90;;;;;;5019596;28;8747;-67
2022/05/31 07:51:12;;;;;;;;;15.20;12.20;32.00;99.90;;;;;;5019560;28;8736;-67
2022/05/31 07:53:39;;;;;;;;;18.50;16.25;32.00;99.90;;;;;;5034655;28;8767;-68
2022/05/31 07:56:07;;;;;;;;;17.00;16.25;32.10;99.90;;;;;;5017675;28;8825;-67
2022/05/31 07:58:35;;;;;;;;;23.00;18.75;32.10;99.90;;;;;;5019017;28;8854;-67
2022/05/31 08:01:03;;;;;;;;;20.50;17.75;32.10;99.90;;;;;;5020074;28;8763;-68
2022/05/31 08:03:30;;;;;;;;;19.75;19.75;32.20;99.90;;;;;;5018867;28;8739;-68
2022/05/31 08:05:57;;;;;;;;;23.40;19.00;32.20;99.90;;;;;;5017686;28;8783;-68
2022/05/31 08:08:24;;;;;;;;;22.50;18.00;32.20;99.90;;;;;;5019098;28;8808;-67
2022/05/31 08:10:51;;;;;;;;;21.00;19.00;32.20;99.90;;;;;;5019103;28;8759;-68
2022/05/31 08:13:18;;;;;;;;;19.00;15.75;32.10;99.60;;;;;;5017904;28;8751;-66
2022/05/31 08:15:44;;;;;;;;;23.25;18.00;32.10;99.90;;;;;;5032938;28;8743;-68
2022/05/31 08:18:11;;;;;;;;;24.00;19.00;32.10;99.50;;;;;;5018688;28;8731;-68
2022/05/31 08:20:39;;;;;;;;;25.50;18.75;32.20;99.90;;;;;;5018541;28;8759;-68
2022/05/31 08:23:06;;;;;;;;;22.25;18.75;32.20;99.90;;;;;;5018209;28;8809;-68
2022/05/31 08:25:38;;;;;;;;;22.75;19.25;32.10;99.90;;;;;;5033929;28;8727;-67
2022/05/31 08:28:05;;;;;;;;;19.75;16.75;32.10;99.90;;;;;;5033448;28;8806;-68
2022/05/31 08:30:32;;;;;;;;;22.50;19.00;32.20;99.90;;;;;;5033762;28;8719;-68
2022/05/31 08:33:00;;;;;;;;;20.00;19.75;32.20;99.90;;;;;;5033744;28;8763;-68
2022/05/31 08:35:26;;;;;;;;;22.25;18.50;32.20;99.90;;;;;;5016886;28;9202;-67
2022/05/31 08:37:53;;;;;;;;;18.75;15.75;32.10;99.90;;;;;;5033777;28;8761;-69
2022/05/31 08:40:20;;;;;;;;;15.75;13.50;32.00;99.90;;;;;;5018988;28;8789;-66
2022/05/31 08:42:59;;;;;;;;;16.50;14.00;32.10;99.90;;;;;;5016288;28;8865;-68
2022/05/31 08:45:47;;;;;;;;;22.00;17.00;32.10;99.90;;;;;;5018409;28;8746;-67
2022/05/31 08:48:35;;;;;;;;;18.25;15.25;32.20;99.90;;;;;;5017224;28;9170;-68
2022/05/31 08:56:56;;;;;;;;;23.00;17.00;32.20;99.10;;;;;;5030521;28;9099;-68
2022/05/31 08:59:47;;;;;;;;;21.50;20.00;32.10;99.90;;;;;;5011757;28;8789;-67
2022/05/31 09:02:47;;;;;;;;;15.75;12.75;32.10;99.90;;;;;;4997236;28;8884;-68
2022/05/31 09:05:27;;;;;;;;;16.75;14.75;32.20;99.90;;;;;;4997890;28;8774;-68
2022/05/31 09:08:12;;;;;;;;;13.00;10.50;32.20;99.90;;;;;;4997692;28;8800;-68
2022/05/31 09:11:01;;;;;;;;;17.80;15.40;32.10;98.90;;;;;;4997332;28;8773;-68
2022/05/31 09:13:56;;;;;;;;;17.00;15.25;32.10;99.40;;;;;;5011260;28;8783;-67
2022/05/31 09:16:41;;;;;;;;;18.75;17.25;32.20;99.50;;;;;;5017009;28;9443;-67
2022/05/31 09:19:18;;;;;;;;;18.25;14.25;32.20;99.90;;;;;;5033604;28;8789;-67
2022/05/31 09:21:46;;;;;;;;;18.50;17.25;32.30;99.90;;;;;;5033423;28;8793;-67
2022/05/31 09:24:18;;;;;;;;;18.00;17.75;32.40;99.90;;;;;;5016432;28;8857;-68
2022/05/31 09:26:54;;;;;;;;;21.00;19.25;32.40;99.90;;;;;;5016302;28;8791;-67
2022/05/31 09:29:33;;;;;;;;;28.50;25.50;32.50;99.90;;;;;;4998086;28;9410;-67
2022/05/31 09:32:12;;;;;;;;;26.50;22.00;32.30;99.90;;;;;;4997307;28;8828;-67
2022/05/31 09:35:09;;;;;;;;;25.25;22.75;32.30;99.90;;;;;;4999049;28;9520;-68
2022/05/31 09:38:04;;;;;;;;;25.25;23.50;32.30;99.90;;;;;;5017796;28;8744;-68
2022/05/31 09:40:51;;;;;;;;;28.50;26.50;32.30;99.90;;;;;;5004576;28;8763;-67
2022/05/31 09:43:41;;;;;;;;;33.75;29.25;32.20;99.90;;;;;;5014192;28;8796;-67
2022/05/31 09:46:11;;;;;;;;;33.00;29.75;32.20;99.90;;;;;;5036504;28;9456;-68
2022/05/31 09:48:48;;;;;;;;;24.50;23.75;32.10;99.90;;;;;;5036912;28;8797;-67
2022/05/31 09:51:24;;;;;;;;;28.00;25.75;32.10;99.90;;;;;;5019320;28;8757;-68
2022/05/31 09:57:24;;;;;;;;;27.75;25.25;32.10;99.90;;;;;;5036991;28;8761;-67
2022/05/31 09:59:27;;;;;;;;;28.50;25.00;32.00;99.90;;;;;;5003278;28;8782;-68
2022/05/31 10:01:54;;;;;;;;;26.50;22.75;32.00;99.90;;;;;;4999936;28;8815;-69
2022/05/31 10:04:26;;;;;;;;;26.75;21.75;32.00;99.90;;;;;;5000049;28;8762;-67
2022/05/31 10:07:06;;;;;;;;;25.00;22.00;32.00;99.90;;;;;;5000326;28;8853;-68
2022/05/31 10:09:40;;;;;;;;;24.25;20.25;31.90;99.90;;;;;;5015504;28;8773;-68
2022/05/31 10:12:30;;;;;;;;;20.00;18.75;32.00;99.90;;;;;;5019812;28;8922;-68
2022/05/31 10:14:57;;;;;;;;;28.00;20.50;31.90;99.90;;;;;;5036902;28;8781;-68
2022/05/31 10:17:37;;;;;;;;;17.00;15.00;31.80;99.90;;;;;;5010850;28;8785;-68
2022/05/31 10:20:23;;;;;;;;;16.00;15.20;31.30;99.90;;;;;;5019685;28;8784;-68
2022/05/31 10:22:51;;;;;;;;;19.00;15.50;30.90;99.90;;;;;;5036754;28;9428;-68
2022/05/31 10:25:41;;;;;;;;;26.00;20.25;30.80;99.90;;;;;;5036923;28;8829;-66
2022/05/31 10:28:29;;;;;;;;;17.20;13.60;30.10;99.90;;;;;;5019984;28;8793;-68
2022/05/31 10:31:27;;;;;;;;;15.60;14.20;29.70;99.90;;;;;;5036519;28;8765;-68
2022/05/31 10:34:04;;;;;;;;;19.00;15.80;29.40;99.90;;;;;;5036910;28;8765;-68
2022/05/31 10:36:32;;;;;;;;;19.00;16.00;29.40;99.90;;;;;;5035979;28;8765;-67
2022/05/31 10:39:11;;;;;;;;;20.80;16.80;29.40;99.90;;;;;;5039395;28;8773;-67
2022/05/31 10:41:38;;;;;;;;;16.00;12.60;29.00;99.90;;;;;;5022522;28;8799;-67
2022/05/31 10:44:26;;;;;;;;;13.60;9.80;28.80;99.90;;;;;;5022464;28;8861;-67
2022/05/31 10:47:03;;;;;;;;;14.20;11.00;28.30;99.90;;;;;;5041057;28;8850;-67
2022/05/31 10:49:29;;;;;;;;;10.80;8.60;28.30;99.90;;;;;;5007606;28;9450;-67
2022/05/31 10:52:15;;;;;;;;;8.40;6.00;28.40;99.90;;;;;;5023725;28;8863;-67
2022/05/31 10:55:25;;;;;;;;;6.00;6.00;28.60;99.90;;;;;;5040589;28;8804;-67
2022/05/31 10:58:20;;;;;;;;;3.20;3.20;28.80;99.90;;;;;;4941179;29;9441;-67
2022/05/31 11:00:50;;;;;;;;;3.20;1.80;28.60;99.90;;;;;;5022504;28;8769;-68
2022/05/31 11:03:44;;;;;;;;;3.20;0.00;28.40;99.90;;;;;;5040204;28;8804;-65
2022/05/31 11:06:32;;;;;;;;;10.40;4.00;28.20;99.90;;;;;;5040578;28;8757;-68
2022/05/31 11:12:36;;;;;;;;;5.80;5.80;27.50;99.90;;;;;;5039315;28;8765;-67
2022/05/31 11:15:20;;;;;;;;;4.80;4.60;27.50;99.90;;;;;;5018469;28;8777;-68
2022/05/31 11:18:19;;;;;;;;;6.60;5.60;27.40;99.90;;;;;;4991616;28;8773;-68
2022/05/31 11:20:56;;;;;;;;;10.20;8.40;27.20;99.90;;;;;;4986068;28;9485;-68
2022/05/31 11:24:04;;;;;;;;;8.80;7.00;27.20;99.90;;;;;;4990117;28;8891;-67
2022/05/31 11:26:51;;;;;;;;;12.60;10.60;27.50;99.90;;;;;;5022601;28;8773;-67
2022/05/31 11:29:31;;;;;;;;;10.00;9.00;27.90;99.90;;;;;;5019740;28;8850;-67
2022/05/31 11:32:27;;;;;;;;;12.80;11.00;28.00;99.90;;;;;;5020361;28;8743;-68
2022/05/31 11:35:09;;;;;;;;;15.20;13.80;27.80;99.90;;;;;;5007470;28;8779;-67
2022/05/31 11:38:04;;;;;;;;;19.80;15.60;27.80;99.90;;;;;;5018267;28;9103;-68
2022/05/31 11:40:43;;;;;;;;;16.20;14.60;28.10;99.90;;;;;;5018910;28;8739;-68
2022/05/31 11:43:34;;;;;;;;;15.60;13.40;28.20;99.90;;;;;;5031479;28;8769;-68
2022/05/31 11:46:22;;;;;;;;;16.60;13.40;27.80;99.90;;;;;;5007870;28;8749;-68
2022/05/31 11:48:52;;;;;;;;;20.50;16.75;27.60;99.90;;;;;;5039479;28;8761;-68
2022/05/31 11:51:53;;;;;;;;;18.50;16.50;27.50;99.90;;;;;;5039130;28;8917;-66
2022/05/31 11:54:23;;;;;;;;;18.00;16.60;27.40;99.90;;;;;;4939941;29;8796;-67
2022/05/31 11:57:14;;;;;;;;;19.20;13.60;27.20;99.90;;;;;;5021352;28;8843;-68
2022/05/31 11:59:54;;;;;;;;;14.40;11.80;27.50;99.90;;;;;;5039455;28;8773;-68
2022/05/31 12:02:31;;;;;;;;;19.80;18.20;27.60;99.90;;;;;;5021427;28;8812;-67
2022/05/31 12:05:22;;;;;;;;;17.40;17.20;27.60;99.90;;;;;;5021725;28;8753;-68
2022/05/31 12:07:58;;;;;;;;;16.00;15.25;28.00;99.90;;;;;;5038821;28;8847;-68
2022/05/31 12:10:35;;;;;;;;;24.25;21.75;27.90;99.90;;;;;;5037978;28;8764;-67
2022/05/31 12:13:07;;;;;;;;;24.75;20.75;28.10;99.90;;;;;;5022312;28;8864;-68
2022/05/31 12:15:35;;;;;;;;;22.75;19.50;28.00;99.90;;;;;;4989048;28;8807;-67
2022/05/31 12:18:13;;;;;;;;;23.75;20.00;27.70;99.90;;;;;;5021204;28;8781;-68
2022/05/31 12:20:42;;;;;;;;;26.20;20.00;27.60;99.90;;;;;;5038853;28;8800;-68
2022/05/31 12:23:14;;;;;;;;;22.60;19.40;27.50;99.90;;;;;;5004648;28;8823;-68
2022/05/31 12:25:52;;;;;;;;;27.00;22.60;27.60;99.90;;;;;;5021934;28;8915;-68
2022/05/31 12:28:23;;;;;;;;;22.80;21.20;27.60;99.90;;;;;;5006690;28;8812;-66
2022/05/31 12:31:02;;;;;;;;;21.80;19.40;27.60;99.90;;;;;;5038063;28;8764;-68
2022/05/31 12:33:48;;;;;;;;;17.20;16.20;27.40;99.90;;;;;;5037158;28;8795;-67
2022/05/31 12:36:17;;;;;;;;;23.60;19.40;27.30;99.90;;;;;;5033085;28;8787;-68
2022/05/31 12:39:04;;;;;;;;;25.00;22.00;27.20;99.90;;;;;;5018437;28;9424;-68
2022/05/31 12:41:32;;;;;;;;;25.00;20.80;27.20;99.90;;;;;;5018534;28;8755;-68
2022/05/31 12:43:59;;;;;;;;;24.75;21.00;27.30;99.90;;;;;;5017062;28;8758;-68
2022/05/31 12:46:38;;;;;;;;;22.25;17.25;27.40;99.90;;;;;;5033600;28;8743;-67
2022/05/31 12:49:10;;;;;;;;;27.00;24.00;27.50;99.90;;;;;;5017620;28;8764;-68
2022/05/31 12:51:38;;;;;;;;;27.50;26.75;27.40;99.90;;;;;;5018417;28;8794;-68
2022/05/31 12:54:11;;;;;;;;;28.00;25.00;27.30;99.90;;;;;;5018256;28;8763;-68
2022/05/31 12:56:39;;;;;;;;;33.50;29.50;27.60;99.90;;;;;;5018466;28;8829;-68
2022/05/31 12:59:07;;;;;;;;;25.40;22.40;27.80;99.90;;;;;;5016658;28;8797;-68
2022/05/31 13:01:35;;;;;;;;;18.60;18.00;27.60;99.90;;;;;;5016025;28;8758;-68
2022/05/31 13:04:21;;;;;;;;;20.25;16.25;27.30;99.90;;;;;;5018696;28;8763;-68
2022/05/31 13:07:14;;;;;;;;;21.75;19.25;27.20;99.90;;;;;;5018301;28;8894;-68
2022/05/31 13:09:46;;;;;;;;;27.75;22.50;27.20;99.90;;;;;;5016406;28;9033;-68
2022/05/31 13:21:01;;;;;;;;;18.20;16.60;26.90;99.90;;;;;;5018443;28;8771;-68
2022/05/31 13:23:29;;;;;;;;;17.20;14.00;26.80;99.90;;;;;;5016730;28;8790;-68
2022/05/31 13:26:04;;;;;;;;;12.80;8.60;26.70;99.90;;;;;;5018154;28;8748;-68
2022/05/31 13:28:41;;;;;;;;;15.75;15.50;26.70;99.90;;;;;;5031845;28;8818;-67
2022/05/31 13:31:13;;;;;;;;;20.25;18.25;26.90;99.90;;;;;;5018810;28;8754;-68
2022/05/31 13:33:40;;;;;;;;;16.00;15.80;26.90;99.90;;;;;;5017720;28;8783;-68
2022/05/31 13:36:19;;;;;;;;;15.20;13.80;26.80;99.90;;;;;;5030435;28;8809;-68
2022/05/31 13:38:47;;;;;;;;;17.20;15.20;26.80;99.90;;;;;;5004438;28;8776;-68
2022/05/31 13:41:15;;;;;;;;;15.80;13.60;26.80;99.90;;;;;;5037569;28;8764;-68